Decoded Metar for KSUS (ST. LOUIS/SPIRIT in MO, USA) (IATA:SUS) | Meteo·Mobile Aviation Weather
aviador You're here:

KSUS Decoded Metar

ST. LOUIS/SPIRIT in MO, USA
Report Time2019-02-20 19:54:00
UTC Time2019-02-20 20:34:27
Flight Rules mvfr MVFR
Wind250° at 15 Gusting to 21 kt
W.Decomp.*RWY 26: 14.7 kt HW 3.1 kt LCW
W.Rank250° ranks 1
Current wind is above 250° avg. (7.0)
Visibility9999 m
Phenomena:N/A
Clouds:Broken 019 Hf
Overcast 026 Hf
Expected CloudBase > 1,200 ft AGL from Temp-Dew spread
Ceiling1,900 ft
Temp05°C (ISA -9)
Dew Point02°C (81% RH)
AAT-2.1°C
QNH1009 hPa
Density Alt-400 ft
Elevation463 ft
Report Wrong Elevation
Raw Report
KSUS 201954Z 25015G21KT 10SM BKN019 OVC026 05/02 A2981 RMK AO2
SLP101 T00500022=

Extra information for KSUS:More info

Metar Taf Metar & Taf Last 4 Metars F.Rules Stats Wind Profile Meteogram Temp Stats Airport Information Weather charts Add Link Nearby VenuesMetar ALERT Operation Metar Decoded Social comments

AIRNAV info for KSUS